createdAt,value
2017-09-14T00:00:45.688Z,14.30
2017-09-14T00:03:13.141Z,14.30
2017-09-14T00:05:40.599Z,14.30
2017-09-14T00:08:09.793Z,14.20
2017-09-14T00:10:37.236Z,14.20
2017-09-14T00:13:06.116Z,14.20
2017-09-14T00:15:33.560Z,14.10
2017-09-14T00:18:01.016Z,14.20
2017-09-14T00:20:28.470Z,14.20
2017-09-14T00:22:55.946Z,14.20
2017-09-14T00:25:23.389Z,14.20
2017-09-14T00:27:50.844Z,14.20
2017-09-14T00:30:18.996Z,14.20
2017-09-14T00:32:47.212Z,14.20
2017-09-14T00:35:14.666Z,14.20
2017-09-14T00:37:42.130Z,14.30
2017-09-14T00:40:09.589Z,14.20
2017-09-14T00:42:37.036Z,14.30
2017-09-14T00:45:04.497Z,14.30
2017-09-14T00:47:31.964Z,14.30
2017-09-14T00:49:59.420Z,14.30
2017-09-14T00:52:26.885Z,14.30
2017-09-14T00:54:54.344Z,14.30
2017-09-14T00:57:22.620Z,14.30
2017-09-14T00:59:50.838Z,14.30
2017-09-14T01:02:18.292Z,14.30
2017-09-14T01:04:45.741Z,14.30
2017-09-14T01:07:13.192Z,14.40
2017-09-14T01:09:41.405Z,14.40
2017-09-14T01:12:08.856Z,14.30
2017-09-14T01:14:54.218Z,14.40
2017-09-14T01:17:21.676Z,14.40
2017-09-14T01:19:49.112Z,14.40
2017-09-14T01:22:16.560Z,14.40
2017-09-14T01:24:44.022Z,14.40
2017-09-14T01:27:12.988Z,14.30
2017-09-14T01:29:40.449Z,14.30
2017-09-14T01:32:07.901Z,14.30
2017-09-14T01:34:35.361Z,14.30
2017-09-14T01:37:02.852Z,14.20
2017-09-14T01:39:30.308Z,14.20
2017-09-14T01:41:57.752Z,14.20
2017-09-14T01:44:25.733Z,14.20
2017-09-14T01:46:53.191Z,14.20
2017-09-14T01:49:20.648Z,14.20
2017-09-14T01:51:48.109Z,14.10
2017-09-14T01:54:15.553Z,14.10
2017-09-14T01:56:43.779Z,14.10
2017-09-14T01:59:14.128Z,14.10
2017-09-14T02:01:41.580Z,14.10
2017-09-14T02:04:09.344Z,14.10
2017-09-14T02:06:36.800Z,14.10
2017-09-14T02:09:04.256Z,14.10
2017-09-14T02:11:31.712Z,14.00
2017-09-14T02:13:59.161Z,14.00
2017-09-14T02:16:26.620Z,14.00
2017-09-14T02:18:54.072Z,14.00
2017-09-14T02:21:21.532Z,14.00
2017-09-14T02:23:49.748Z,14.00
2017-09-14T02:26:17.420Z,14.00
2017-09-14T02:28:44.872Z,14.00
2017-09-14T02:31:12.317Z,14.00
2017-09-14T02:33:39.781Z,14.00
2017-09-14T02:36:07.233Z,14.00
2017-09-14T02:38:34.692Z,14.00
2017-09-14T02:41:02.901Z,13.90
2017-09-14T02:43:30.349Z,13.90
2017-09-14T02:45:57.788Z,13.90
2017-09-14T02:48:26.021Z,13.90
2017-09-14T02:50:53.473Z,13.90
2017-09-14T02:53:20.928Z,13.90
2017-09-14T02:55:48.384Z,13.90
2017-09-14T02:58:15.846Z,13.80
2017-09-14T03:00:43.305Z,13.90
2017-09-14T03:03:10.746Z,13.90
2017-09-14T03:05:38.956Z,13.80
2017-09-14T03:08:06.412Z,13.80
2017-09-14T03:10:33.859Z,13.80
2017-09-14T03:13:01.324Z,13.80
2017-09-14T03:15:29.536Z,13.80
2017-09-14T03:17:57.004Z,13.80
2017-09-14T03:20:24.452Z,13.80
2017-09-14T03:22:51.938Z,13.80
2017-09-14T03:25:19.384Z,13.70
2017-09-14T03:27:46.844Z,13.70
2017-09-14T03:30:14.301Z,13.70
2017-09-14T03:32:41.754Z,13.70
2017-09-14T03:35:09.202Z,13.70
2017-09-14T03:37:37.416Z,13.70
2017-09-14T03:40:04.872Z,13.70
2017-09-14T03:42:32.325Z,13.70
2017-09-14T03:44:59.775Z,13.70
2017-09-14T03:47:27.220Z,13.60
2017-09-14T03:49:55.436Z,13.50
2017-09-14T03:52:22.893Z,13.50
2017-09-14T03:54:50.397Z,13.50
2017-09-14T03:57:17.845Z,13.40
2017-09-14T03:59:45.305Z,13.30
2017-09-14T04:02:12.773Z,13.30
2017-09-14T04:04:40.220Z,13.20
2017-09-14T04:07:08.876Z,13.20
2017-09-14T04:09:37.101Z,13.10
2017-09-14T04:12:04.713Z,13.10
2017-09-14T04:14:32.928Z,13.00
2017-09-14T04:17:00.389Z,13.10
2017-09-14T04:19:27.848Z,13.10
2017-09-14T04:21:55.341Z,13.00
2017-09-14T04:24:22.785Z,13.00
2017-09-14T04:26:50.853Z,13.00
2017-09-14T04:29:19.202Z,13.00
2017-09-14T04:31:47.415Z,13.00
2017-09-14T04:34:14.870Z,13.00
2017-09-14T04:36:42.328Z,13.00
2017-09-14T04:39:09.781Z,13.00
2017-09-14T04:41:37.992Z,13.10
2017-09-14T04:44:05.449Z,13.10
2017-09-14T04:46:32.913Z,13.10
2017-09-14T04:49:00.401Z,13.10
2017-09-14T04:51:27.853Z,13.10
2017-09-14T04:53:55.316Z,13.10
2017-09-14T04:56:22.761Z,13.10
2017-09-14T04:58:50.219Z,13.10
2017-09-14T05:01:17.692Z,13.10
2017-09-14T05:03:45.136Z,13.10
2017-09-14T05:06:13.219Z,13.10
2017-09-14T05:08:40.997Z,13.10
2017-09-14T05:11:08.444Z,13.10
2017-09-14T05:13:35.921Z,13.10
2017-09-14T05:16:03.379Z,13.00
2017-09-14T05:18:30.827Z,13.00
2017-09-14T05:20:58.280Z,12.90
2017-09-14T05:23:26.493Z,12.90
2017-09-14T05:25:53.949Z,12.90
2017-09-14T05:28:21.383Z,12.90
2017-09-14T05:30:49.598Z,12.90
2017-09-14T05:33:17.060Z,12.90
2017-09-14T05:35:44.516Z,13.00
2017-09-14T05:38:11.951Z,12.90
2017-09-14T05:40:40.162Z,12.90
2017-09-14T05:43:07.602Z,12.90
2017-09-14T05:45:35.806Z,12.90
2017-09-14T05:48:03.269Z,12.90
2017-09-14T05:50:30.731Z,12.90
2017-09-14T05:52:58.189Z,12.80
2017-09-14T05:55:25.653Z,12.80
2017-09-14T05:57:53.088Z,12.80
2017-09-14T06:00:21.322Z,12.80
2017-09-14T06:02:48.764Z,12.80
2017-09-14T06:05:16.199Z,12.80
2017-09-14T06:07:44.435Z,12.80
2017-09-14T06:10:11.875Z,12.80
2017-09-14T06:12:39.344Z,12.80
2017-09-14T06:15:06.778Z,12.80
2017-09-14T06:17:34.202Z,12.80
2017-09-14T06:20:01.645Z,12.80
2017-09-14T06:22:29.089Z,12.90
2017-09-14T06:24:56.544Z,12.90
2017-09-14T06:27:23.996Z,12.90
2017-09-14T06:29:51.449Z,12.80
2017-09-14T06:32:18.900Z,12.80
2017-09-14T06:34:47.124Z,12.80
2017-09-14T06:37:14.573Z,12.80
2017-09-14T06:39:42.030Z,12.80
2017-09-14T06:42:09.492Z,12.80
2017-09-14T06:44:36.941Z,12.70
2017-09-14T06:47:04.398Z,12.70
2017-09-14T06:49:32.621Z,12.70
2017-09-14T06:52:00.069Z,12.70
2017-09-14T06:54:27.524Z,12.70
2017-09-14T06:56:54.983Z,12.70
2017-09-14T06:59:22.436Z,12.70
2017-09-14T07:01:49.889Z,12.60
2017-09-14T07:04:18.104Z,12.60
2017-09-14T07:06:45.555Z,12.60
2017-09-14T07:09:13.000Z,12.60
2017-09-14T07:11:40.457Z,12.60
2017-09-14T07:14:08.681Z,12.50
2017-09-14T07:16:36.132Z,12.50
2017-09-14T07:19:03.587Z,12.50
2017-09-14T07:21:31.045Z,12.50
2017-09-14T07:23:58.499Z,12.60
2017-09-14T07:26:25.949Z,12.60
2017-09-14T07:28:54.173Z,12.50
2017-09-14T07:31:21.620Z,12.50
2017-09-14T07:33:49.073Z,12.60
2017-09-14T07:36:16.537Z,12.60
2017-09-14T07:38:43.995Z,12.60
2017-09-14T07:41:11.449Z,12.60
2017-09-14T07:43:38.904Z,12.60
2017-09-14T07:46:07.112Z,12.60
2017-09-14T07:48:34.566Z,12.60
2017-09-14T07:51:02.024Z,12.60
2017-09-14T07:53:29.465Z,12.60
2017-09-14T07:55:57.688Z,12.50
2017-09-14T07:58:25.144Z,12.60
2017-09-14T08:00:52.601Z,12.60
2017-09-14T08:03:20.055Z,12.60
2017-09-14T08:05:47.504Z,12.50
2017-09-14T08:08:16.085Z,12.60
2017-09-14T08:10:44.302Z,12.60
2017-09-14T08:13:11.745Z,12.60
2017-09-14T08:15:39.202Z,12.60
2017-09-14T08:18:06.660Z,12.70
2017-09-14T08:20:34.880Z,12.70
2017-09-14T08:23:02.328Z,12.70
2017-09-14T08:25:29.784Z,12.70
2017-09-14T08:27:57.241Z,12.70
2017-09-14T08:30:24.696Z,12.80
2017-09-14T08:32:52.152Z,12.80
2017-09-14T08:35:20.368Z,12.80
2017-09-14T08:37:47.820Z,12.80
2017-09-14T08:40:15.276Z,12.90
2017-09-14T08:42:42.734Z,12.90
2017-09-14T08:45:10.180Z,12.90
2017-09-14T08:47:38.401Z,12.90
2017-09-14T08:50:05.853Z,12.90
2017-09-14T08:52:34.612Z,12.90
2017-09-14T08:55:02.836Z,12.90
2017-09-14T08:57:30.274Z,12.90
2017-09-14T08:59:57.729Z,12.90
2017-09-14T09:02:25.186Z,13.00
2017-09-14T09:04:53.412Z,13.00
2017-09-14T09:07:20.872Z,13.00
2017-09-14T09:09:48.373Z,13.00
2017-09-14T09:12:15.833Z,13.10
2017-09-14T09:14:44.128Z,13.10
2017-09-14T09:17:12.364Z,13.10
2017-09-14T09:19:39.820Z,13.10
2017-09-14T09:22:07.284Z,13.20
2017-09-14T09:24:34.728Z,13.20
2017-09-14T09:27:02.189Z,13.20
2017-09-14T09:29:29.648Z,13.30
2017-09-14T09:31:57.098Z,13.30
2017-09-14T09:34:24.557Z,13.30
2017-09-14T09:36:52.007Z,13.40
2017-09-14T09:39:20.228Z,13.30
2017-09-14T09:41:47.696Z,13.30
2017-09-14T09:44:15.146Z,13.30
2017-09-14T09:46:42.589Z,13.40
2017-09-14T09:49:10.045Z,13.30
2017-09-14T09:51:38.261Z,13.30
2017-09-14T09:54:05.713Z,13.30
2017-09-14T09:56:34.077Z,13.40
2017-09-14T09:59:02.476Z,13.40
2017-09-14T10:01:29.939Z,13.40
2017-09-14T10:03:57.383Z,13.40
2017-09-14T10:06:25.598Z,13.50
2017-09-14T10:08:53.043Z,13.40
2017-09-14T10:11:20.497Z,13.50
2017-09-14T10:13:47.931Z,13.50
2017-09-14T10:16:16.148Z,13.50
2017-09-14T10:18:43.611Z,13.50
2017-09-14T10:21:11.768Z,13.60
2017-09-14T10:23:39.985Z,13.70
2017-09-14T10:26:07.434Z,13.60
2017-09-14T10:28:34.889Z,13.70
2017-09-14T10:31:02.322Z,13.70
2017-09-14T10:33:30.527Z,13.70
2017-09-14T10:35:57.962Z,13.70
2017-09-14T10:38:25.399Z,13.70
2017-09-14T10:40:52.847Z,13.70
2017-09-14T10:43:20.287Z,13.70
2017-09-14T10:45:47.748Z,13.80
2017-09-14T10:48:15.192Z,13.80
2017-09-14T10:50:43.408Z,13.90
2017-09-14T10:53:10.860Z,13.90
2017-09-14T10:55:38.317Z,13.90
2017-09-14T10:58:05.774Z,13.90
2017-09-14T11:00:33.218Z,13.90
2017-09-14T11:03:01.440Z,13.90
2017-09-14T11:05:30.292Z,13.80
2017-09-14T11:07:58.508Z,13.80
2017-09-14T11:10:25.958Z,13.80
2017-09-14T11:12:53.410Z,13.70
2017-09-14T11:15:20.868Z,13.50
2017-09-14T11:17:48.336Z,13.30
2017-09-14T11:20:16.541Z,13.00
2017-09-14T11:22:44.000Z,13.00
2017-09-14T11:25:11.457Z,13.00
2017-09-14T11:27:40.624Z,13.00
2017-09-14T11:30:08.845Z,13.20
2017-09-14T11:32:36.304Z,13.20
2017-09-14T11:35:03.764Z,13.20
2017-09-14T11:37:31.220Z,13.20
2017-09-14T11:39:58.684Z,13.30
2017-09-14T11:42:26.137Z,13.40
2017-09-14T11:44:53.572Z,13.60
2017-09-14T11:47:21.019Z,13.90
2017-09-14T11:49:48.464Z,14.10
2017-09-14T11:52:15.912Z,14.30
2017-09-14T11:54:43.367Z,14.50
2017-09-14T11:57:10.829Z,14.60
2017-09-14T11:59:38.277Z,14.80
2017-09-14T12:02:05.737Z,15.00
2017-09-14T12:04:33.193Z,15.20
2017-09-14T12:07:01.405Z,15.20
2017-09-14T12:09:28.856Z,15.10
2017-09-14T12:11:56.300Z,15.10
2017-09-14T12:14:23.757Z,15.00
2017-09-14T12:16:51.977Z,15.20
2017-09-14T12:19:19.432Z,15.10
2017-09-14T12:21:46.880Z,15.40
2017-09-14T12:24:14.344Z,15.50
2017-09-14T12:26:41.788Z,15.60
2017-09-14T12:29:10.005Z,15.80
2017-09-14T12:31:37.461Z,15.80
2017-09-14T12:34:04.916Z,15.80
2017-09-14T12:36:32.365Z,15.70
2017-09-14T12:38:59.828Z,15.60
2017-09-14T12:41:27.276Z,15.50
2017-09-14T12:43:55.505Z,15.70
2017-09-14T12:46:22.971Z,15.70
2017-09-14T12:48:50.412Z,15.80
2017-09-14T12:51:17.865Z,15.80
2017-09-14T12:53:45.316Z,15.80
2017-09-14T12:56:12.761Z,15.80
2017-09-14T12:58:40.977Z,16.00
2017-09-14T13:01:08.420Z,16.00
2017-09-14T13:03:35.893Z,16.10
2017-09-14T13:06:03.336Z,16.10
2017-09-14T13:08:31.558Z,16.10
2017-09-14T13:10:59.013Z,16.10
2017-09-14T13:13:26.480Z,15.90
2017-09-14T13:15:53.964Z,15.80
2017-09-14T13:18:21.433Z,15.70
2017-09-14T13:20:48.909Z,15.70
2017-09-14T13:23:16.368Z,15.70
2017-09-14T13:25:43.825Z,15.70
2017-09-14T13:28:11.268Z,15.70
2017-09-14T13:30:38.758Z,15.80
2017-09-14T13:33:06.208Z,15.90
2017-09-14T13:35:33.649Z,16.00
2017-09-14T13:38:01.106Z,16.10
2017-09-14T13:40:28.568Z,16.10
2017-09-14T13:42:56.021Z,16.10
2017-09-14T13:45:23.480Z,16.00
2017-09-14T13:47:50.932Z,16.00
2017-09-14T13:50:18.384Z,15.90
2017-09-14T13:52:46.589Z,15.80
2017-09-14T13:55:14.512Z,15.80
2017-09-14T13:57:41.953Z,15.80
2017-09-14T14:00:10.689Z,15.70
2017-09-14T14:02:38.913Z,15.60
2017-09-14T14:05:06.365Z,15.60
2017-09-14T14:07:33.825Z,15.50
2017-09-14T14:10:01.250Z,15.50
2017-09-14T14:12:29.477Z,15.40
2017-09-14T14:14:56.929Z,15.30
2017-09-14T14:17:24.390Z,15.10
2017-09-14T14:19:51.830Z,14.60
2017-09-14T14:22:20.054Z,14.00
2017-09-14T14:24:47.506Z,13.90
2017-09-14T14:27:14.957Z,13.80
2017-09-14T14:29:42.401Z,13.50
2017-09-14T14:32:09.860Z,13.40
2017-09-14T14:34:38.073Z,13.20
2017-09-14T14:37:05.524Z,13.20
2017-09-14T14:39:32.983Z,13.20
2017-09-14T14:42:00.425Z,13.20
2017-09-14T14:44:28.654Z,13.10
2017-09-14T14:46:56.108Z,13.10
2017-09-14T14:49:23.566Z,13.10
2017-09-14T14:51:51.029Z,13.10
2017-09-14T14:54:18.476Z,13.00
2017-09-14T14:56:45.958Z,13.10
2017-09-14T14:59:13.401Z,13.00
2017-09-14T15:01:40.853Z,13.00
2017-09-14T15:04:08.304Z,13.00
2017-09-14T15:06:36.537Z,13.00
2017-09-14T15:09:03.977Z,13.00
2017-09-14T15:11:31.435Z,12.90
2017-09-14T15:13:58.890Z,12.90
2017-09-14T15:16:26.345Z,12.90
2017-09-14T15:18:53.798Z,13.00
2017-09-14T15:21:22.013Z,13.00
2017-09-14T15:23:49.468Z,13.00
2017-09-14T15:26:16.941Z,13.00
2017-09-14T15:28:45.089Z,13.10
2017-09-14T15:31:12.541Z,13.00
2017-09-14T15:33:40.785Z,13.00
2017-09-14T15:36:08.244Z,13.00
2017-09-14T15:38:41.536Z,13.10
2017-09-14T15:41:14.800Z,13.00
2017-09-14T15:43:47.897Z,13.00
2017-09-14T15:46:15.380Z,13.00
2017-09-14T15:48:48.528Z,13.00
2017-09-14T15:51:22.572Z,12.90
2017-09-14T15:53:50.025Z,12.90
2017-09-14T15:56:17.492Z,13.00
2017-09-14T15:58:44.952Z,12.90
2017-09-14T16:01:12.397Z,12.90
2017-09-14T16:03:39.852Z,12.80
2017-09-14T16:06:08.072Z,12.60
2017-09-14T16:08:35.537Z,12.60
2017-09-14T16:11:03.182Z,12.50
2017-09-14T16:13:30.641Z,12.30
2017-09-14T16:15:58.102Z,12.30
2017-09-14T16:18:25.557Z,12.20
2017-09-14T16:20:53.001Z,12.20
2017-09-14T16:23:21.225Z,12.10
2017-09-14T16:25:48.684Z,12.10
2017-09-14T16:28:16.138Z,12.00
2017-09-14T16:30:43.597Z,12.00
2017-09-14T16:33:11.049Z,11.90
2017-09-14T16:35:38.505Z,11.80
2017-09-14T16:38:06.733Z,11.80
2017-09-14T16:40:34.185Z,11.80
2017-09-14T16:43:01.633Z,11.70
2017-09-14T16:45:29.089Z,11.70
2017-09-14T16:47:56.545Z,11.70
2017-09-14T16:50:24.026Z,11.60
2017-09-14T16:52:51.505Z,11.60
2017-09-14T16:55:18.961Z,11.60
2017-09-14T16:57:46.409Z,11.60
2017-09-14T17:00:13.848Z,11.60
2017-09-14T17:02:42.080Z,11.40
2017-09-14T17:05:10.316Z,11.40
2017-09-14T17:07:38.564Z,11.40
2017-09-14T17:10:06.028Z,11.40
2017-09-14T17:12:33.486Z,11.40
2017-09-14T17:15:00.949Z,11.40
2017-09-14T17:17:28.953Z,11.40
2017-09-14T17:19:57.184Z,11.30
2017-09-14T17:22:24.632Z,11.30
2017-09-14T17:24:52.100Z,11.30
2017-09-14T17:27:19.554Z,11.30
2017-09-14T17:29:47.002Z,11.30
2017-09-14T17:32:14.460Z,11.30
2017-09-14T17:34:41.921Z,11.20
2017-09-14T17:37:09.376Z,11.30
2017-09-14T17:39:37.978Z,11.30
2017-09-14T17:42:05.441Z,11.30
2017-09-14T17:44:32.893Z,11.20
2017-09-14T17:47:00.354Z,11.30
2017-09-14T17:49:27.808Z,11.20
2017-09-14T17:51:56.020Z,11.20
2017-09-14T17:54:23.480Z,11.20
2017-09-14T17:56:50.940Z,11.30
2017-09-14T17:59:18.406Z,11.40
2017-09-14T18:01:45.865Z,11.40
2017-09-14T18:04:13.309Z,11.40
2017-09-14T18:06:41.529Z,11.30
2017-09-14T18:09:08.985Z,11.30
2017-09-14T18:11:36.445Z,11.30
2017-09-14T18:14:03.894Z,11.30
2017-09-14T18:16:31.365Z,11.30
2017-09-14T18:18:58.820Z,11.30
2017-09-14T18:21:26.272Z,11.30
2017-09-14T18:23:53.728Z,11.30
2017-09-14T18:26:21.185Z,11.30
2017-09-14T18:28:49.419Z,11.30
2017-09-14T18:31:16.870Z,11.30
2017-09-14T18:33:44.328Z,11.30
2017-09-14T18:36:11.816Z,11.30
2017-09-14T18:38:39.288Z,11.30
2017-09-14T18:41:06.747Z,11.30
2017-09-14T18:43:34.192Z,11.30
2017-09-14T18:46:01.704Z,11.30
2017-09-14T18:48:29.141Z,11.30
2017-09-14T18:50:56.602Z,11.30
2017-09-14T18:53:24.048Z,11.30
2017-09-14T18:55:51.508Z,11.30
2017-09-14T18:58:18.971Z,11.30
2017-09-14T19:00:46.408Z,11.30
2017-09-14T19:03:13.868Z,11.30
2017-09-14T19:05:41.333Z,11.30
2017-09-14T19:08:08.796Z,11.40
2017-09-14T19:10:36.309Z,11.40
2017-09-14T19:13:03.768Z,11.40
2017-09-14T19:15:31.234Z,11.40
2017-09-14T19:17:58.693Z,11.40
2017-09-14T19:20:26.185Z,11.30
2017-09-14T19:22:54.412Z,11.40
2017-09-14T19:25:21.922Z,11.30
2017-09-14T19:27:49.411Z,11.40
2017-09-14T19:30:16.902Z,11.40
2017-09-14T19:32:44.345Z,11.40
2017-09-14T19:35:11.803Z,11.40
2017-09-14T19:37:39.253Z,11.40
2017-09-14T19:40:06.706Z,11.40
2017-09-14T19:42:34.933Z,11.40
2017-09-14T19:45:02.394Z,11.40
2017-09-14T19:47:29.884Z,11.40
2017-09-14T19:49:57.417Z,11.40
2017-09-14T19:52:24.873Z,11.40
2017-09-14T19:54:52.337Z,11.40
2017-09-14T19:57:19.806Z,11.40
2017-09-14T19:59:47.261Z,11.50
2017-09-14T20:02:14.724Z,11.50
2017-09-14T20:04:42.181Z,11.40
2017-09-14T20:07:09.640Z,11.50
2017-09-14T20:09:37.109Z,11.50
2017-09-14T20:12:05.253Z,11.50
2017-09-14T20:14:33.471Z,11.50
2017-09-14T20:17:00.917Z,11.50
2017-09-14T20:19:28.388Z,11.50
2017-09-14T20:21:55.865Z,11.50
2017-09-14T20:24:23.311Z,11.50
2017-09-14T20:26:50.777Z,11.50
2017-09-14T20:29:18.237Z,11.50
2017-09-14T20:31:45.689Z,11.50
2017-09-14T20:34:13.149Z,11.60
2017-09-14T20:36:41.368Z,11.60
2017-09-14T20:39:08.832Z,11.60
2017-09-14T20:41:36.304Z,11.60
2017-09-14T20:44:03.752Z,11.60
2017-09-14T20:46:31.211Z,11.60
2017-09-14T20:48:58.661Z,11.60
2017-09-14T20:51:26.112Z,11.60
2017-09-14T20:53:53.563Z,11.60
2017-09-14T20:56:21.008Z,11.60
2017-09-14T20:58:49.237Z,11.70
2017-09-14T21:01:16.689Z,11.60
2017-09-14T21:03:44.149Z,11.60
2017-09-14T21:06:11.596Z,11.70
2017-09-14T21:08:39.052Z,11.70
2017-09-14T21:11:07.260Z,11.70
2017-09-14T21:13:34.718Z,11.70
2017-09-14T21:16:02.193Z,11.70
2017-09-14T21:18:29.640Z,11.70
2017-09-14T21:20:57.102Z,11.70
2017-09-14T21:23:24.560Z,11.70
2017-09-14T21:25:51.997Z,11.70
2017-09-14T21:28:20.220Z,11.70
2017-09-14T21:30:47.681Z,11.70
2017-09-14T21:33:15.147Z,11.70
2017-09-14T21:35:42.601Z,11.70
2017-09-14T21:38:10.880Z,11.70
2017-09-14T21:40:38.329Z,11.70
2017-09-14T21:43:05.785Z,11.70
2017-09-14T21:45:33.249Z,11.70
2017-09-14T21:48:01.480Z,11.70
2017-09-14T21:50:28.933Z,11.70
2017-09-14T21:52:57.149Z,11.70
2017-09-14T21:55:24.608Z,11.70
2017-09-14T21:57:52.084Z,11.70
2017-09-14T22:00:20.309Z,11.70
2017-09-14T22:02:47.756Z,11.70
2017-09-14T22:05:15.220Z,11.70
2017-09-14T22:07:42.686Z,11.70
2017-09-14T22:10:10.121Z,11.70
2017-09-14T22:12:38.340Z,11.80
2017-09-14T22:15:05.789Z,11.70
2017-09-14T22:17:33.253Z,11.80
2017-09-14T22:20:00.716Z,11.80
2017-09-14T22:22:28.924Z,11.80
2017-09-14T22:24:56.380Z,11.80
2017-09-14T22:27:24.596Z,11.80
2017-09-14T22:29:52.050Z,11.80
2017-09-14T22:32:19.529Z,11.80
2017-09-14T22:34:46.968Z,11.80
2017-09-14T22:37:14.413Z,11.80
2017-09-14T22:39:41.872Z,11.80
2017-09-14T22:42:09.311Z,11.80
2017-09-14T22:44:36.771Z,11.80
2017-09-14T22:47:04.224Z,11.80
2017-09-14T22:49:31.700Z,11.80
2017-09-14T22:51:59.158Z,11.80
2017-09-14T22:54:26.613Z,11.80
2017-09-14T22:56:54.108Z,11.80
2017-09-14T22:59:21.568Z,11.80
2017-09-14T23:01:49.028Z,11.90
2017-09-14T23:04:16.476Z,11.90
2017-09-14T23:06:43.941Z,11.90
2017-09-14T23:09:11.413Z,11.90
2017-09-14T23:11:38.896Z,11.90
2017-09-14T23:14:06.336Z,11.90
2017-09-14T23:16:33.797Z,11.90
2017-09-14T23:19:01.261Z,11.90
2017-09-14T23:21:28.723Z,11.90
2017-09-14T23:23:56.180Z,11.90
2017-09-14T23:26:23.628Z,11.90
2017-09-14T23:28:51.080Z,11.90
2017-09-14T23:31:18.542Z,11.90
2017-09-14T23:33:46.797Z,11.90
2017-09-14T23:36:14.268Z,11.90
2017-09-14T23:38:41.725Z,11.90
2017-09-14T23:41:09.185Z,11.90
2017-09-14T23:43:36.641Z,11.90
2017-09-14T23:46:04.119Z,12.00
2017-09-14T23:48:31.574Z,12.00
2017-09-14T23:50:59.032Z,12.00
2017-09-14T23:53:26.497Z,12.00
2017-09-14T23:55:53.964Z,12.00
2017-09-14T23:58:21.405Z,12.00
